Time,TemperatureF,DewpointF,PressureIn,WindDirection,WindDirectionDegrees,WindSpeedMPH,WindSpeedGustMPH,Humidity,HourlyPrecipIn,Conditions,Clouds,dailyrainin,SoftwareType,DateUTC
2013-06-02 00:00:00,50.5,49.4,29.76,NE,56,0.0,0.0,96,0.00,,,0.00,Wunderground v.1.15,2013-06-02 04:00:00,
2013-06-02 00:10:00,50.6,49.8,29.76,ENE,67,0.0,0.0,97,0.00,,,0.00,Wunderground v.1.15,2013-06-02 04:10:00,
2013-06-02 00:20:00,50.7,49.9,29.76,East,85,0.0,0.0,97,0.00,,,0.00,Wunderground v.1.15,2013-06-02 04:20:00,
2013-06-02 00:30:00,50.7,49.9,29.75,ESE,107,0.0,0.0,97,0.00,,,0.00,Wunderground v.1.15,2013-06-02 04:30:00,
2013-06-02 00:40:00,50.7,49.9,29.77,SW,215,0.0,0.0,97,0.00,,,0.00,Wunderground v.1.15,2013-06-02 04:40:00,
2013-06-02 00:50:00,50.8,50.0,29.76,SW,215,0.0,0.0,97,0.00,,,0.01,Wunderground v.1.15,2013-06-02 04:50:00,
2013-06-02 01:00:00,50.9,50.1,29.75,ENE,63,0.0,2.0,97,0.08,,,0.04,Wunderground v.1.15,2013-06-02 05:00:00,
2013-06-02 01:10:00,51.2,50.4,29.74,ENE,65,0.0,0.0,97,0.00,,,0.04,Wunderground v.1.15,2013-06-02 05:10:00,
2013-06-02 01:20:00,51.4,50.6,29.74,East,80,0.0,0.0,97,0.00,,,0.04,Wunderground v.1.15,2013-06-02 05:20:00,
2013-06-02 01:30:00,51.4,50.6,29.73,East,79,0.0,0.0,97,0.00,,,0.04,Wunderground v.1.15,2013-06-02 05:30:00,
2013-06-02 01:40:00,51.3,50.5,29.73,East,79,0.0,0.0,97,0.00,,,0.04,Wunderground v.1.15,2013-06-02 05:40:00,
2013-06-02 01:50:00,51.3,50.5,29.75,ENE,76,0.0,0.0,97,0.00,,,0.04,Wunderground v.1.15,2013-06-02 05:50:00,
2013-06-02 02:00:00,51.2,50.4,29.75,ENE,76,0.0,0.0,97,0.00,,,0.04,Wunderground v.1.15,2013-06-02 06:00:00,
2013-06-02 02:10:00,51.2,50.4,29.75,ENE,76,0.0,0.0,97,0.00,,,0.05,Wunderground v.1.15,2013-06-02 06:10:00,
2013-06-02 02:20:00,51.2,50.4,29.75,ENE,76,0.0,0.0,97,0.00,,,0.05,Wunderground v.1.15,2013-06-02 06:20:00,
2013-06-02 02:30:00,51.3,50.5,29.74,ESE,107,0.0,0.0,97,0.00,,,0.05,Wunderground v.1.15,2013-06-02 06:30:00,
2013-06-02 02:40:00,51.4,50.6,29.74,North,350,0.0,0.0,97,0.00,,,0.05,Wunderground v.1.15,2013-06-02 06:40:00,
2013-06-02 02:50:00,51.7,50.9,29.74,North,350,1.0,1.0,97,0.00,,,0.05,Wunderground v.1.15,2013-06-02 06:50:00,
2013-06-02 03:00:00,52.1,51.3,29.73,North,350,0.0,0.0,97,0.00,,,0.05,Wunderground v.1.15,2013-06-02 07:00:00,
2013-06-02 03:10:00,52.2,51.4,29.73,NNE,32,0.0,0.0,97,0.00,,,0.05,Wunderground v.1.15,2013-06-02 07:10:00,
2013-06-02 03:20:00,52.3,51.5,29.73,NNE,32,0.0,0.0,97,0.00,,,0.05,Wunderground v.1.15,2013-06-02 07:20:00,
2013-06-02 03:30:00,52.5,51.7,29.73,NE,52,0.0,0.0,97,0.00,,,0.06,Wunderground v.1.15,2013-06-02 07:30:00,
2013-06-02 03:40:00,52.4,51.6,29.72,NE,52,0.0,0.0,97,0.08,,,0.07,Wunderground v.1.15,2013-06-02 07:40:00,
2013-06-02 03:50:00,52.3,51.5,29.72,East,98,0.0,0.0,97,0.06,,,0.08,Wunderground v.1.15,2013-06-02 07:50:00,
2013-06-02 04:00:00,52.3,51.5,29.72,East,98,0.0,0.0,97,0.04,,,0.08,Wunderground v.1.15,2013-06-02 08:00:00,
2013-06-02 04:10:00,52.3,51.5,29.72,East,98,0.0,0.0,97,0.00,,,0.08,Wunderground v.1.15,2013-06-02 08:10:00,
2013-06-02 04:20:00,52.4,51.6,29.72,East,98,0.0,0.0,97,0.00,,,0.08,Wunderground v.1.15,2013-06-02 08:20:00,
2013-06-02 04:30:00,52.5,51.7,29.72,WSW,249,0.0,0.0,97,0.00,,,0.08,Wunderground v.1.15,2013-06-02 08:30:00,
2013-06-02 04:40:00,52.6,51.8,29.72,WSW,250,0.0,0.0,97,0.00,,,0.08,Wunderground v.1.15,2013-06-02 08:40:00,
2013-06-02 04:50:00,52.6,51.8,29.72,WSW,250,0.0,0.0,97,0.00,,,0.08,Wunderground v.1.15,2013-06-02 08:50:00,
2013-06-02 05:00:00,52.8,52.3,29.72,WSW,249,0.0,0.0,98,0.00,,,0.08,Wunderground v.1.15,2013-06-02 09:00:00,
2013-06-02 05:10:00,52.9,52.4,29.72,WSW,249,0.0,0.0,98,0.00,,,0.08,Wunderground v.1.15,2013-06-02 09:10:00,
2013-06-02 05:20:00,53.2,52.7,29.73,WSW,250,0.0,0.0,98,0.00,,,0.08,Wunderground v.1.15,2013-06-02 09:20:00,
2013-06-02 05:30:00,53.3,52.8,29.73,WSW,250,0.0,0.0,98,0.00,,,0.08,Wunderground v.1.15,2013-06-02 09:30:00,
2013-06-02 05:40:00,53.4,52.8,29.73,WSW,250,0.0,0.0,98,0.00,,,0.08,Wunderground v.1.15,2013-06-02 09:40:00,
2013-06-02 05:50:00,53.5,52.9,29.74,WSW,249,0.0,0.0,98,0.00,,,0.08,Wunderground v.1.15,2013-06-02 09:50:00,
2013-06-02 06:00:00,53.6,53.0,29.74,WSW,256,1.0,1.0,98,0.00,,,0.08,Wunderground v.1.15,2013-06-02 10:00:00,
2013-06-02 06:10:00,53.6,53.0,29.74,WSW,256,0.0,0.0,98,0.00,,,0.08,Wunderground v.1.15,2013-06-02 10:10:00,
2013-06-02 06:20:00,53.5,52.9,29.74,WSW,256,0.0,0.0,98,0.00,,,0.08,Wunderground v.1.15,2013-06-02 10:20:00,
2013-06-02 06:30:00,53.7,53.1,29.75,WSW,256,0.0,0.0,98,0.00,,,0.08,Wunderground v.1.15,2013-06-02 10:30:00,
2013-06-02 06:40:00,53.9,53.3,29.75,WSW,256,0.0,0.0,98,0.00,,,0.08,Wunderground v.1.15,2013-06-02 10:40:00,
2013-06-02 06:50:00,54.1,53.5,29.74,WSW,256,0.0,0.0,98,0.00,,,0.08,Wunderground v.1.15,2013-06-02 10:50:00,
2013-06-02 07:00:00,53.9,53.9,29.75,WSW,256,0.0,0.0,100,0.00,,,0.08,Wunderground v.1.15,2013-06-02 11:00:00,
2013-06-02 07:10:00,53.9,53.3,29.76,WSW,256,0.0,0.0,98,0.00,,,0.08,Wunderground v.1.15,2013-06-02 11:10:00,
2013-06-02 07:20:00,54.0,53.4,29.76,WSW,256,0.0,0.0,98,0.00,,,0.08,Wunderground v.1.15,2013-06-02 11:20:00,
2013-06-02 07:30:00,54.3,53.7,29.76,WSW,256,0.0,0.0,98,0.00,,,0.08,Wunderground v.1.15,2013-06-02 11:30:00,
2013-06-02 07:40:00,54.8,54.2,29.76,WSW,256,0.0,0.0,98,0.00,,,0.08,Wunderground v.1.15,2013-06-02 11:40:00,
2013-06-02 07:50:00,55.2,54.6,29.76,WSW,256,0.0,0.0,98,0.00,,,0.08,Wunderground v.1.15,2013-06-02 11:50:00,
2013-06-02 08:00:00,55.7,55.1,29.76,WSW,256,0.0,0.0,98,0.00,,,0.08,Wunderground v.1.15,2013-06-02 12:00:00,
2013-06-02 08:10:00,56.2,55.6,29.76,WSW,256,0.0,0.0,98,0.00,,,0.08,Wunderground v.1.15,2013-06-02 12:10:00,
2013-06-02 08:20:00,57.3,56.7,29.76,West,259,0.0,0.0,98,0.00,,,0.08,Wunderground v.1.15,2013-06-02 12:20:00,
2013-06-02 08:30:00,56.8,56.2,29.76,East,101,1.0,1.0,98,0.00,,,0.08,Wunderground v.1.15,2013-06-02 12:30:00,
2013-06-02 08:40:00,56.8,56.2,29.76,East,101,0.0,0.0,98,0.00,,,0.08,Wunderground v.1.15,2013-06-02 12:40:00,
2013-06-02 08:50:00,57.7,57.1,29.76,SSE,159,0.0,0.0,98,0.00,,,0.08,Wunderground v.1.15,2013-06-02 12:50:00,
2013-06-02 09:00:00,59.0,58.4,29.75,South,180,0.0,0.0,98,0.00,,,0.08,Wunderground v.1.15,2013-06-02 13:00:00,
2013-06-02 09:10:00,59.7,59.1,29.75,SSE,163,0.0,0.0,98,0.00,,,0.08,Wunderground v.1.15,2013-06-02 13:10:00,
2013-06-02 09:20:00,59.7,59.1,29.75,East,87,0.0,0.0,98,0.00,,,0.08,Wunderground v.1.15,2013-06-02 13:20:00,
2013-06-02 09:30:00,60.7,60.1,29.75,ENE,71,0.0,0.0,98,0.00,,,0.08,Wunderground v.1.15,2013-06-02 13:30:00,
2013-06-02 09:40:00,60.4,59.8,29.75,ENE,71,0.0,0.0,98,0.00,,,0.08,Wunderground v.1.15,2013-06-02 13:40:00,
2013-06-02 09:50:00,60.4,59.5,29.76,ENE,71,0.0,0.0,97,0.00,,,0.08,Wunderground v.1.15,2013-06-02 13:50:00,
2013-06-02 10:00:00,60.7,59.8,29.76,ENE,71,0.0,0.0,97,0.00,,,0.08,Wunderground v.1.15,2013-06-02 14:00:00,
2013-06-02 10:10:00,60.5,59.6,29.75,ENE,71,0.0,0.0,97,0.00,,,0.08,Wunderground v.1.15,2013-06-02 14:10:00,
2013-06-02 10:20:00,61.0,60.1,29.75,ENE,71,0.0,0.0,97,0.00,,,0.08,Wunderground v.1.15,2013-06-02 14:20:00,
2013-06-02 10:30:00,61.7,61.1,29.75,ENE,71,0.0,0.0,98,0.00,,,0.08,Wunderground v.1.15,2013-06-02 14:30:00,
2013-06-02 10:40:00,62.6,61.7,29.75,ENE,71,0.0,0.0,97,0.00,,,0.08,Wunderground v.1.15,2013-06-02 14:40:00,
2013-06-02 10:50:00,62.6,61.4,29.74,ENE,75,0.0,0.0,96,0.00,,,0.08,Wunderground v.1.15,2013-06-02 14:50:00,
2013-06-02 11:00:00,62.5,61.3,29.75,ENE,75,0.0,0.0,96,0.00,,,0.08,Wunderground v.1.15,2013-06-02 15:00:00,
2013-06-02 11:10:00,62.5,61.3,29.75,ENE,68,0.0,0.0,96,0.00,,,0.08,Wunderground v.1.15,2013-06-02 15:10:00,
2013-06-02 11:20:00,63.2,62.3,29.75,ENE,67,0.0,0.0,97,0.00,,,0.08,Wunderground v.1.15,2013-06-02 15:20:00,
2013-06-02 11:30:00,63.6,62.1,29.74,ENE,68,0.0,0.0,95,0.00,,,0.08,Wunderground v.1.15,2013-06-02 15:30:00,
2013-06-02 11:40:00,64.1,62.6,29.75,ENE,68,0.0,0.0,95,0.00,,,0.08,Wunderground v.1.15,2013-06-02 15:40:00,
2013-06-02 11:50:00,64.6,62.8,29.75,ENE,78,0.0,0.0,94,0.00,,,0.08,Wunderground v.1.15,2013-06-02 15:50:00,
2013-06-02 12:00:00,65.0,63.2,29.74,NE,56,1.0,1.0,94,0.00,,,0.08,Wunderground v.1.15,2013-06-02 16:00:00,
2013-06-02 12:10:00,65.9,64.1,29.74,ENE,66,0.0,0.0,94,0.00,,,0.08,Wunderground v.1.15,2013-06-02 16:10:00,
2013-06-02 12:20:00,66.9,64.8,29.74,ENE,63,0.0,0.0,93,0.00,,,0.08,Wunderground v.1.15,2013-06-02 16:20:00,
2013-06-02 12:30:00,68.8,67.0,29.72,East,83,0.0,0.0,94,0.00,,,0.08,Wunderground v.1.15,2013-06-02 16:30:00,
2013-06-02 12:40:00,70.1,67.7,29.72,East,80,0.0,0.0,92,0.00,,,0.08,Wunderground v.1.15,2013-06-02 16:40:00,
2013-06-02 12:50:00,70.6,67.5,29.72,SE,142,0.0,0.0,90,0.00,,,0.08,Wunderground v.1.15,2013-06-02 16:50:00,
2013-06-02 13:00:00,71.1,67.7,29.72,NE,48,0.0,1.0,89,0.00,,,0.08,Wunderground v.1.15,2013-06-02 17:00:00,
2013-06-02 13:10:00,71.8,68.1,29.71,ENE,65,1.0,1.0,88,0.00,,,0.08,Wunderground v.1.15,2013-06-02 17:10:00,
2013-06-02 13:20:00,72.2,68.1,29.71,ENE,72,0.0,0.0,87,0.00,,,0.08,Wunderground v.1.15,2013-06-02 17:20:00,
2013-06-02 13:30:00,72.1,68.0,29.70,ENE,72,0.0,0.0,87,0.00,,,0.08,Wunderground v.1.15,2013-06-02 17:30:00,
2013-06-02 13:40:00,71.3,67.2,29.69,ENE,58,1.0,2.0,87,0.00,,,0.08,Wunderground v.1.15,2013-06-02 17:40:00,
2013-06-02 13:50:00,71.3,67.9,29.69,East,86,1.0,1.0,89,0.00,,,0.08,Wunderground v.1.15,2013-06-02 17:50:00,
2013-06-02 14:00:00,71.8,68.4,29.68,NE,51,1.0,1.0,89,0.00,,,0.08,Wunderground v.1.15,2013-06-02 18:00:00,
2013-06-02 14:10:00,72.6,68.8,29.67,ENE,60,2.0,3.0,88,0.00,,,0.08,Wunderground v.1.15,2013-06-02 18:10:00,
2013-06-02 14:20:00,72.7,68.3,29.66,ENE,62,3.0,3.0,86,0.00,,,0.08,Wunderground v.1.15,2013-06-02 18:20:00,
2013-06-02 14:30:00,72.7,68.6,29.65,East,83,2.0,2.0,87,0.00,,,0.08,Wunderground v.1.15,2013-06-02 18:30:00,
2013-06-02 14:40:00,72.7,68.3,29.65,ENE,57,2.0,3.0,86,0.00,,,0.08,Wunderground v.1.15,2013-06-02 18:40:00,
2013-06-02 14:50:00,71.9,67.8,29.64,NE,53,2.0,2.0,87,0.00,,,0.08,Wunderground v.1.15,2013-06-02 18:50:00,
2013-06-02 15:30:00,68.4,65.7,29.66,East,84,4.0,4.0,91,1.60,,,0.35,Wunderground v.1.15,2013-06-02 19:30:00,
2013-06-02 15:40:00,67.2,65.4,29.63,ENE,69,2.0,2.0,94,0.70,,,0.57,Wunderground v.1.15,2013-06-02 19:40:00,
2013-06-02 15:50:00,66.6,65.1,29.64,NE,52,1.0,3.0,95,0.32,,,0.65,Wunderground v.1.15,2013-06-02 19:50:00,
2013-06-02 16:00:00,66.1,64.6,29.64,ENE,75,1.0,1.0,95,0.44,,,0.72,Wunderground v.1.15,2013-06-02 20:00:00,
2013-06-02 16:10:00,65.6,64.1,29.63,ENE,68,2.0,2.0,95,0.14,,,0.74,Wunderground v.1.15,2013-06-02 20:10:00,
2013-06-02 16:20:00,65.3,64.1,29.61,ESE,104,1.0,1.0,96,0.04,,,0.74,Wunderground v.1.15,2013-06-02 20:20:00,
2013-06-02 16:30:00,65.1,63.9,29.61,ENE,67,0.0,0.0,96,0.00,,,0.74,Wunderground v.1.15,2013-06-02 20:30:00,
2013-06-02 16:40:00,64.7,63.5,29.61,ESE,103,2.0,5.0,96,0.00,,,0.74,Wunderground v.1.15,2013-06-02 20:40:00,
2013-06-02 16:50:00,64.5,63.6,29.61,East,86,1.0,1.0,97,0.00,,,0.74,Wunderground v.1.15,2013-06-02 20:50:00,
2013-06-02 17:00:00,64.5,63.6,29.62,ENE,69,0.0,0.0,97,0.00,,,0.74,Wunderground v.1.15,2013-06-02 21:00:00,
2013-06-02 17:10:00,64.7,63.8,29.60,ENE,69,0.0,0.0,97,0.00,,,0.74,Wunderground v.1.15,2013-06-02 21:10:00,
2013-06-02 17:20:00,64.7,63.8,29.62,NNE,19,1.0,3.0,97,0.00,,,0.74,Wunderground v.1.15,2013-06-02 21:20:00,
2013-06-02 17:30:00,64.3,63.4,29.63,East,88,1.0,1.0,97,0.00,,,0.74,Wunderground v.1.15,2013-06-02 21:30:00,
2013-06-02 17:40:00,64.1,63.2,29.63,East,87,0.0,0.0,97,1.57,,,0.82,Wunderground v.1.15,2013-06-02 21:40:00,
2013-06-02 17:50:00,63.9,63.0,29.64,NNW,330,1.0,3.0,97,0.13,,,0.88,Wunderground v.1.15,2013-06-02 21:50:00,
2013-06-02 18:00:00,63.9,63.0,29.65,NW,319,7.0,9.0,97,0.05,,,0.89,Wunderground v.1.15,2013-06-02 22:00:00,
2013-06-02 18:10:00,64.0,63.1,29.65,NW,319,3.0,3.0,97,0.08,,,0.90,Wunderground v.1.15,2013-06-02 22:10:00,
2013-06-02 18:20:00,63.9,63.0,29.62,NW,319,0.0,0.0,97,0.14,,,0.97,Wunderground v.1.15,2013-06-02 22:20:00,
2013-06-02 18:30:00,63.9,63.0,29.62,ENE,73,0.0,0.0,97,0.09,,,0.98,Wunderground v.1.15,2013-06-02 22:30:00,
2013-06-02 18:40:00,63.8,62.9,29.61,ENE,73,0.0,0.0,97,0.04,,,0.99,Wunderground v.1.15,2013-06-02 22:40:00,
2013-06-02 18:50:00,63.3,62.4,29.62,ENE,71,0.0,0.0,97,0.04,,,0.99,Wunderground v.1.15,2013-06-02 22:50:00,
2013-06-02 19:00:00,62.8,61.9,29.63,ENE,67,0.0,0.0,97,0.00,,,0.99,Wunderground v.1.15,2013-06-02 23:00:00,
2013-06-02 19:10:00,62.3,61.4,29.64,ENE,67,0.0,0.0,97,0.00,,,0.99,Wunderground v.1.15,2013-06-02 23:10:00,
2013-06-02 19:20:00,61.9,61.0,29.65,SSE,161,0.0,0.0,97,0.08,,,1.01,Wunderground v.1.15,2013-06-02 23:20:00,
2013-06-02 19:30:00,61.6,60.7,29.65,SSE,161,0.0,2.0,97,0.15,,,1.04,Wunderground v.1.15,2013-06-02 23:30:00,
2013-06-02 19:40:00,61.4,60.5,29.64,SE,146,0.0,0.0,97,0.22,,,1.06,Wunderground v.1.15,2013-06-02 23:40:00,
2013-06-02 19:50:00,61.3,60.4,29.64,SSE,152,0.0,0.0,97,0.15,,,1.08,Wunderground v.1.15,2013-06-02 23:50:00,
2013-06-02 20:00:00,61.1,60.2,29.64,SSE,152,0.0,0.0,97,0.07,,,1.09,Wunderground v.1.15,2013-06-03 00:00:00,
2013-06-02 20:10:00,61.1,60.2,29.63,SSE,152,0.0,0.0,97,0.08,,,1.10,Wunderground v.1.15,2013-06-03 00:10:00,
2013-06-02 20:20:00,61.0,60.1,29.64,SSE,152,0.0,0.0,97,0.12,,,1.12,Wunderground v.1.15,2013-06-03 00:20:00,
2013-06-02 20:30:00,61.0,60.1,29.63,SSE,152,0.0,0.0,97,0.11,,,1.15,Wunderground v.1.15,2013-06-03 00:30:00,
2013-06-02 20:40:00,60.9,60.0,29.64,SSE,152,0.0,0.0,97,0.22,,,1.18,Wunderground v.1.15,2013-06-03 00:40:00,
2013-06-02 20:50:00,60.8,59.9,29.64,SSE,152,0.0,0.0,97,0.10,,,1.19,Wunderground v.1.15,2013-06-03 00:50:00,
2013-06-02 21:00:00,61.1,60.5,29.64,SSE,152,0.0,0.0,98,0.06,,,1.20,Wunderground v.1.15,2013-06-03 01:00:00,
2013-06-02 21:10:00,61.1,60.2,29.65,SSE,152,0.0,0.0,97,0.00,,,1.20,Wunderground v.1.15,2013-06-03 01:10:00,
2013-06-02 21:20:00,61.0,60.4,29.65,SSE,152,0.0,0.0,98,0.00,,,1.20,Wunderground v.1.15,2013-06-03 01:20:00,
2013-06-02 21:30:00,61.3,60.7,29.64,SSE,149,0.0,0.0,98,0.00,,,1.20,Wunderground v.1.15,2013-06-03 01:30:00,
2013-06-02 21:40:00,62.9,62.3,29.63,NNE,16,0.0,0.0,98,0.00,,,1.20,Wunderground v.1.15,2013-06-03 01:40:00,
2013-06-02 21:50:00,64.4,63.8,29.64,SSW,203,0.0,0.0,98,0.00,,,1.20,Wunderground v.1.15,2013-06-03 01:50:00,
2013-06-02 22:00:00,65.0,64.7,29.64,South,186,0.0,0.0,99,0.00,,,1.20,Wunderground v.1.15,2013-06-03 02:00:00,
2013-06-02 22:10:00,65.1,64.5,29.63,ENE,71,0.0,0.0,98,0.00,,,1.20,Wunderground v.1.15,2013-06-03 02:10:00,
2013-06-02 22:20:00,65.0,64.4,29.63,SE,146,0.0,2.0,98,0.00,,,1.20,Wunderground v.1.15,2013-06-03 02:20:00,
2013-06-02 22:30:00,65.0,64.4,29.63,North,5,0.0,0.0,98,0.00,,,1.20,Wunderground v.1.15,2013-06-03 02:30:00,
2013-06-02 22:40:00,64.9,64.3,29.63,SSW,209,1.0,1.0,98,0.00,,,1.20,Wunderground v.1.15,2013-06-03 02:40:00,
2013-06-02 22:50:00,64.8,64.2,29.63,NE,41,0.0,0.0,98,0.00,,,1.20,Wunderground v.1.15,2013-06-03 02:50:00,
2013-06-02 23:00:00,64.7,64.1,29.63,North,355,1.0,1.0,98,0.00,,,1.20,Wunderground v.1.15,2013-06-03 03:00:00,
2013-06-02 23:10:00,64.7,64.1,29.63,ENE,63,0.0,0.0,98,0.00,,,1.20,Wunderground v.1.15,2013-06-03 03:10:00,
2013-06-02 23:20:00,64.6,64.0,29.63,WSW,258,0.0,0.0,98,0.00,,,1.20,Wunderground v.1.15,2013-06-03 03:20:00,
2013-06-02 23:30:00,64.5,63.9,29.62,WNW,283,0.0,0.0,98,0.00,,,1.20,Wunderground v.1.15,2013-06-03 03:30:00,
2013-06-02 23:40:00,64.5,63.9,29.63,SE,145,1.0,1.0,98,0.00,,,1.20,Wunderground v.1.15,2013-06-03 03:40:00,
2013-06-02 23:50:00,64.5,63.9,29.63,East,96,0.0,1.0,98,0.00,,,1.20,Wunderground v.1.15,2013-06-03 03:50:00,